Time;durP1;ratioP1;P1;durP2;ratioP2;P2;SDS_P1;SDS_P2;PMS_P1;PMS_P2;Temp;Humidity;BMP_temperature;BMP_pressure;BME280_temperature;BME280_humidity;BME280_pressure;Samples;Min_cycle;Max_cycle;Signal;HPM_P1;HPM_P2
2021/07/10 00:00:07;;;;;;;18.70;15.60;;;;;;;17.23;78.81;101363.34;5058884;28;20499;-70
2021/07/10 00:02:32;;;;;;;18.57;16.67;;;;;;;17.47;77.47;101359.63;5059184;28;20165;-69
2021/07/10 00:04:57;;;;;;;17.00;15.30;;;;;;;17.27;78.16;101351.91;5058105;28;20432;-69
2021/07/10 00:07:23;;;;;;;17.37;15.57;;;;;;;17.33;77.64;101354.47;5058661;28;20185;-69
2021/07/10 00:09:48;;;;;;;17.03;14.70;;;;;;;17.14;78.24;101357.28;5059162;28;20166;-69
2021/07/10 00:12:13;;;;;;;16.93;15.07;;;;;;;17.27;78.03;101359.81;5058694;28;20624;-70
2021/07/10 00:14:39;;;;;;;17.03;14.77;;;;;;;17.51;77.19;101356.09;5058990;28;20173;-70
2021/07/10 00:17:04;;;;;;;16.97;15.13;;;;;;;17.27;77.81;101365.94;5058307;28;20223;-70
2021/07/10 00:19:29;;;;;;;15.37;13.97;;;;;;;17.26;77.76;101358.06;5058652;28;20288;-70
2021/07/10 00:21:54;;;;;;;16.20;14.20;;;;;;;17.37;77.27;101350.91;5058541;28;20213;-70
2021/07/10 00:24:20;;;;;;;17.23;15.40;;;;;;;17.38;77.28;101351.81;5058395;28;20213;-70
2021/07/10 00:26:45;;;;;;;15.87;14.17;;;;;;;17.46;76.89;101352.63;5058438;28;20189;-70
2021/07/10 00:29:11;;;;;;;18.97;15.07;;;;;;;17.41;76.86;101343.88;5058608;28;20169;-70
2021/07/10 00:31:37;;;;;;;16.10;14.50;;;;;;;17.64;76.70;101338.38;5058300;28;20177;-70
2021/07/10 00:34:02;;;;;;;17.10;15.27;;;;;;;17.46;76.76;101332.38;5058135;28;20208;-70
2021/07/10 00:36:27;;;;;;;15.73;14.07;;;;;;;17.10;78.07;101334.47;5058354;28;20169;-70
2021/07/10 00:38:53;;;;;;;15.37;13.70;;;;;;;17.24;77.44;101334.34;5058219;28;20216;-70
2021/07/10 00:41:19;;;;;;;16.70;15.10;;;;;;;17.56;76.13;101335.81;5058267;28;20174;-70
2021/07/10 00:43:48;;;;;;;17.43;15.63;;;;;;;17.24;76.44;101328.19;5058380;28;20165;-70
2021/07/10 00:46:17;;;;;;;15.97;14.37;;;;;;;17.12;77.23;101332.69;5058025;28;20184;-70
2021/07/10 00:48:42;;;;;;;19.90;14.80;;;;;;;17.30;76.82;101331.66;5058156;28;20399;-70
2021/07/10 00:51:08;;;;;;;16.87;15.27;;;;;;;17.24;76.91;101334.34;5058358;28;20677;-70
2021/07/10 00:53:33;;;;;;;16.17;14.57;;;;;;;16.89;78.00;101334.59;5057784;28;20201;-70
2021/07/10 00:55:58;;;;;;;17.77;15.70;;;;;;;17.07;78.22;101325.72;5057933;28;20181;-71
2021/07/10 00:58:24;;;;;;;17.77;15.93;;;;;;;17.11;77.79;101320.41;5058490;28;20284;-70
2021/07/10 01:00:49;;;;;;;21.77;16.40;;;;;;;16.99;78.86;101312.59;5057284;28;20248;-70
2021/07/10 01:03:14;;;;;;;17.50;15.27;;;;;;;17.19;77.44;101308.94;5057903;28;20200;-70
2021/07/10 01:05:40;;;;;;;17.67;15.83;;;;;;;17.32;76.67;101305.31;5058105;28;20181;-70
2021/07/10 01:08:05;;;;;;;18.20;16.30;;;;;;;17.20;77.95;101302.75;5058794;28;20165;-69
2021/07/10 01:10:31;;;;;;;17.43;15.53;;;;;;;16.90;78.54;101307.41;5058046;28;20193;-70
2021/07/10 01:12:56;;;;;;;17.57;15.77;;;;;;;17.16;77.78;101307.19;5058208;28;20176;-70
2021/07/10 01:15:25;;;;;;;18.27;15.50;;;;;;;17.23;77.44;101300.13;5057026;28;20536;-70
2021/07/10 01:17:50;;;;;;;19.10;17.13;;;;;;;17.11;78.04;101307.22;5057603;28;20247;-69
2021/07/10 01:20:18;;;;;;;18.93;16.23;;;;;;;17.03;77.96;101301.16;5057945;28;20821;-69
2021/07/10 01:22:45;;;;;;;16.80;15.10;;;;;;;16.88;78.28;101294.22;5057551;28;20178;-69
2021/07/10 01:25:13;;;;;;;16.60;15.00;;;;;;;16.95;78.92;101295.06;5057492;28;20857;-70
2021/07/10 01:27:39;;;;;;;17.47;14.93;;;;;;;16.97;77.93;101283.63;5058081;28;20412;-70
2021/07/10 01:30:07;;;;;;;16.70;15.00;;;;;;;17.02;77.94;101283.59;5057524;28;20426;-69
2021/07/10 01:32:33;;;;;;;17.93;16.10;;;;;;;17.16;77.22;101289.63;5057578;28;20420;-69
2021/07/10 01:34:58;;;;;;;17.50;15.67;;;;;;;16.86;77.82;101290.72;5058140;28;20470;-69
2021/07/10 01:37:24;;;;;;;18.43;16.07;;;;;;;16.96;78.17;101292.41;5057576;28;20489;-70
2021/07/10 01:39:49;;;;;;;17.43;15.50;;;;;;;16.94;77.82;101288.94;5057723;28;20292;-70
2021/07/10 01:42:14;;;;;;;17.13;15.30;;;;;;;17.03;77.87;101285.34;5057818;28;20255;-70
2021/07/10 01:44:40;;;;;;;18.97;17.00;;;;;;;16.91;77.57;101277.53;5057463;28;20570;-69
2021/07/10 01:47:05;;;;;;;19.00;15.90;;;;;;;16.97;77.48;101273.09;5058828;28;20571;-69
2021/07/10 01:49:31;;;;;;;19.00;16.77;;;;;;;17.10;77.35;101271.25;5061897;28;20162;-69
2021/07/10 01:51:57;;;;;;;17.47;15.70;;;;;;;17.10;77.02;101271.25;5061333;28;20166;-69
2021/07/10 01:54:22;;;;;;;18.13;16.00;;;;;;;17.01;77.05;101276.59;5061157;28;20896;-70
2021/07/10 01:56:49;;;;;;;25.13;19.40;;;;;;;16.83;78.15;101273.19;5061442;28;20186;-68
2021/07/10 01:59:14;;;;;;;18.27;15.70;;;;;;;17.02;76.92;101267.78;5061299;28;20201;-67
2021/07/10 02:01:40;;;;;;;17.60;15.90;;;;;;;16.77;77.98;101270.59;5061087;28;20412;-67
2021/07/10 02:04:08;;;;;;;17.33;15.50;;;;;;;16.63;78.55;101267.22;5060602;28;20177;-67
2021/07/10 02:06:33;;;;;;;19.97;16.30;;;;;;;16.87;77.47;101266.13;5060985;28;20193;-68
2021/07/10 02:08:58;;;;;;;18.67;16.73;;;;;;;16.77;78.08;101265.31;5061082;28;20399;-67
2021/07/10 02:11:24;;;;;;;18.60;16.67;;;;;;;16.91;77.66;101267.00;5061339;28;20231;-67
2021/07/10 02:13:49;;;;;;;18.80;16.20;;;;;;;16.80;77.77;101264.44;5060679;28;20581;-67
2021/07/10 02:16:14;;;;;;;19.17;16.63;;;;;;;16.83;77.94;101265.28;5060710;28;20182;-67
2021/07/10 02:18:40;;;;;;;17.07;15.47;;;;;;;17.06;77.45;101264.25;5061002;28;20443;-67
2021/07/10 02:21:05;;;;;;;20.07;17.50;;;;;;;17.04;77.84;101259.91;5059815;28;20180;-67
2021/07/10 02:23:31;;;;;;;21.00;17.60;;;;;;;16.87;77.73;101254.72;5059539;28;20583;-67
2021/07/10 02:25:56;;;;;;;24.93;18.30;;;;;;;16.92;77.58;101255.59;5061222;28;20174;-68
2021/07/10 02:28:21;;;;;;;18.97;16.93;;;;;;;16.78;77.38;101248.66;5060683;28;20434;-67
2021/07/10 02:30:47;;;;;;;18.50;16.40;;;;;;;16.76;77.86;101250.41;5060673;28;20180;-67
2021/07/10 02:33:12;;;;;;;18.37;16.53;;;;;;;16.66;77.96;101252.25;5060765;28;20249;-68
2021/07/10 02:35:38;;;;;;;19.30;17.17;;;;;;;16.48;78.57;101252.38;5060421;28;20166;-68
2021/07/10 02:38:03;;;;;;;19.40;16.03;;;;;;;16.83;76.96;101252.13;5060348;28;20232;-68
2021/07/10 02:40:29;;;;;;;20.67;17.17;;;;;;;16.76;77.35;101258.31;5060935;28;20422;-68
2021/07/10 02:42:54;;;;;;;19.23;17.40;;;;;;;16.49;78.39;101262.91;5060366;28;20261;-67
2021/07/10 02:45:20;;;;;;;22.07;17.00;;;;;;;16.71;77.35;101249.59;5060379;28;20169;-67
2021/07/10 02:47:46;;;;;;;19.93;17.83;;;;;;;16.71;77.72;101253.97;5060642;28;20426;-67
2021/07/10 02:50:17;;;;;;;17.77;15.97;;;;;;;16.62;77.29;101245.25;5060383;28;20182;-67
2021/07/10 02:52:42;;;;;;;20.17;16.30;;;;;;;16.69;77.16;101256.63;5060124;28;20428;-68
2021/07/10 02:55:09;;;;;;;18.50;16.50;;;;;;;16.62;76.94;101252.28;5060542;28;20674;-68
2021/07/10 02:57:35;;;;;;;17.73;16.00;;;;;;;16.35;77.77;101253.34;5059913;28;20192;-68
2021/07/10 03:00:00;;;;;;;18.43;16.03;;;;;;;16.57;77.60;101246.19;5060041;28;20464;-68
2021/07/10 03:02:26;;;;;;;17.90;15.57;;;;;;;16.38;78.00;101251.56;5060302;28;20413;-68
2021/07/10 03:04:51;;;;;;;17.30;15.50;;;;;;;16.51;77.70;101262.91;5059833;28;20196;-68
2021/07/10 03:07:16;;;;;;;19.87;15.93;;;;;;;16.63;77.23;101249.63;5059891;28;20201;-68
2021/07/10 03:09:42;;;;;;;17.33;15.63;;;;;;;16.49;77.88;101254.13;5060707;28;20201;-68
2021/07/10 03:12:07;;;;;;;17.70;15.23;;;;;;;16.69;77.06;101248.72;5060222;28;20205;-68
2021/07/10 03:14:33;;;;;;;18.20;16.40;;;;;;;16.64;76.79;101247.88;5059756;28;20181;-67
2021/07/10 03:16:58;;;;;;;17.80;15.97;;;;;;;16.97;75.91;101252.03;5060230;28;20193;-68
2021/07/10 03:19:24;;;;;;;18.90;16.90;;;;;;;16.81;76.16;101245.97;5059668;28;20236;-68
2021/07/10 03:21:49;;;;;;;18.53;14.70;;;;;;;16.94;76.40;101245.91;5059584;28;20196;-68
2021/07/10 03:24:15;;;;;;;16.47;14.87;;;;;;;16.55;77.60;101245.31;5059528;28;20225;-68
2021/07/10 03:26:40;;;;;;;17.90;15.07;;;;;;;16.64;77.02;101258.41;5059666;28;20177;-68
2021/07/10 03:29:05;;;;;;;17.13;14.53;;;;;;;16.76;76.83;101242.50;5059595;28;20170;-68
2021/07/10 03:31:30;;;;;;;17.87;15.00;;;;;;;16.86;76.80;101251.22;5059440;28;20551;-67
2021/07/10 03:33:56;;;;;;;19.63;14.40;;;;;;;16.98;76.61;101255.53;5059335;28;20231;-67
2021/07/10 03:36:24;;;;;;;16.23;14.53;;;;;;;17.24;75.27;101246.50;5060125;28;20223;-68
2021/07/10 03:38:49;;;;;;;16.77;15.07;;;;;;;16.76;77.34;101252.19;5059547;28;20198;-67
2021/07/10 03:41:14;;;;;;;15.40;13.80;;;;;;;16.99;76.32;101249.38;5059333;28;20413;-67
2021/07/10 03:43:40;;;;;;;17.97;16.27;;;;;;;16.93;75.73;101245.03;5059489;28;20172;-67
2021/07/10 03:46:06;;;;;;;17.50;14.80;;;;;;;16.61;77.42;101254.03;5059321;28;20177;-67
2021/07/10 03:48:31;;;;;;;16.17;14.57;;;;;;;16.79;76.65;101247.78;5059575;28;20644;-67
2021/07/10 03:50:58;;;;;;;17.27;15.57;;;;;;;16.82;76.21;101246.88;5058774;28;20170;-67
2021/07/10 03:53:23;;;;;;;17.30;15.37;;;;;;;16.58;77.16;101250.56;5058059;28;20303;-67
2021/07/10 03:55:49;;;;;;;18.90;17.00;;;;;;;16.86;76.65;101250.34;5058246;28;20429;-67
2021/07/10 03:58:14;;;;;;;17.27;15.43;;;;;;;16.58;76.61;101263.72;5059412;28;20571;-67
2021/07/10 04:00:39;;;;;;;18.23;16.40;;;;;;;16.65;76.65;101262.78;5058924;28;20169;-67
2021/07/10 04:03:06;;;;;;;17.07;15.40;;;;;;;16.96;75.90;101260.81;5058609;28;20183;-67
2021/07/10 04:05:31;;;;;;;17.97;16.00;;;;;;;16.71;76.26;101257.50;5059198;28;20425;-67
2021/07/10 04:07:56;;;;;;;17.63;15.23;;;;;;;16.71;76.63;101261.88;5058743;28;20391;-67
2021/07/10 04:10:22;;;;;;;17.07;15.40;;;;;;;16.67;76.38;101259.25;5058332;28;20169;-68
2021/07/10 04:12:47;;;;;;;15.63;14.23;;;;;;;16.78;76.11;101253.91;5059002;28;20172;-68
2021/07/10 04:15:17;;;;;;;18.23;16.10;;;;;;;16.41;77.29;101262.09;5058649;28;20485;-68
2021/07/10 04:17:43;;;;;;;17.00;15.30;;;;;;;16.68;76.71;101249.59;5058620;28;20243;-69
2021/07/10 04:20:09;;;;;;;18.07;16.13;;;;;;;16.88;75.93;101240.69;5059016;28;20526;-68
2021/07/10 04:22:35;;;;;;;15.97;14.33;;;;;;;16.79;76.14;101241.59;5058502;28;20806;-68
2021/07/10 04:25:03;;;;;;;18.17;16.27;;;;;;;16.97;75.95;101245.91;5058421;28;20495;-67
2021/07/10 04:27:32;;;;;;;18.03;16.07;;;;;;;16.84;75.50;101245.97;5058926;28;20430;-67
2021/07/10 04:29:58;;;;;;;15.93;14.20;;;;;;;17.05;75.55;101249.34;5058360;28;20394;-67
2021/07/10 04:32:23;;;;;;;16.17;14.57;;;;;;;16.78;76.55;101253.06;5058227;28;20401;-68
2021/07/10 04:34:49;;;;;;;16.00;14.30;;;;;;;17.00;76.13;101248.50;5058613;28;20234;-68
2021/07/10 04:37:14;;;;;;;14.40;13.10;;;;;;;17.29;74.67;101256.13;5058264;28;20170;-68
2021/07/10 04:39:39;;;;;;;14.70;13.30;;;;;;;17.12;75.44;101258.91;5058114;28;20205;-68
2021/07/10 04:42:05;;;;;;;15.07;12.63;;;;;;;17.19;75.54;101256.25;5057714;28;20411;-69
2021/07/10 04:44:31;;;;;;;13.47;12.07;;;;;;;17.42;75.03;101254.22;5057328;28;20185;-70
2021/07/10 04:46:56;;;;;;;14.03;12.83;;;;;;;17.44;74.61;101247.19;5056810;28;20260;-70
2021/07/10 04:49:22;;;;;;;13.27;11.87;;;;;;;17.44;74.67;101254.22;5058128;28;20559;-70
2021/07/10 04:51:47;;;;;;;13.90;12.60;;;;;;;17.22;75.24;101254.44;5057939;28;20554;-70
2021/07/10 04:54:12;;;;;;;15.07;11.33;;;;;;;17.33;74.96;101259.59;5057631;28;20197;-71
2021/07/10 04:56:38;;;;;;;13.47;12.17;;;;;;;17.42;74.37;101254.22;5058264;28;20597;-70
2021/07/10 04:59:03;;;;;;;12.67;11.40;;;;;;;17.43;74.53;101258.63;5057814;28;20205;-70
2021/07/10 05:01:28;;;;;;;12.70;11.40;;;;;;;17.46;74.08;101260.34;5057913;28;20352;-70
2021/07/10 05:03:54;;;;;;;13.07;11.30;;;;;;;17.44;74.37;101255.09;5057953;28;20256;-69
2021/07/10 05:06:19;;;;;;;13.80;12.50;;;;;;;17.55;73.75;101251.47;5057751;28;20184;-71
2021/07/10 05:08:44;;;;;;;14.53;11.57;;;;;;;17.53;73.81;101242.72;5057721;28;20248;-70
2021/07/10 05:11:10;;;;;;;12.90;11.60;;;;;;;17.53;73.66;101247.97;5058234;28;20193;-71
2021/07/10 05:13:36;;;;;;;13.90;11.00;;;;;;;17.29;74.57;101247.34;5057736;28;20489;-69
2021/07/10 05:16:01;;;;;;;13.27;11.87;;;;;;;17.62;73.46;101243.47;5057703;28;20255;-69
2021/07/10 05:18:26;;;;;;;13.60;12.20;;;;;;;17.66;72.74;101242.53;5058146;28;20557;-70
2021/07/10 05:20:51;;;;;;;11.77;10.60;;;;;;;17.77;71.74;101241.56;5057613;28;20574;-69
2021/07/10 05:23:17;;;;;;;12.97;11.60;;;;;;;17.56;72.53;101235.63;5060127;28;20182;-69
2021/07/10 05:25:42;;;;;;;11.90;10.77;;;;;;;17.71;72.35;101233.72;5062284;28;20177;-69
2021/07/10 05:28:07;;;;;;;12.63;11.40;;;;;;;17.70;72.21;101234.59;5061613;28;20493;-68
2021/07/10 05:30:33;;;;;;;12.53;11.33;;;;;;;17.50;72.83;101243.63;5061571;28;20177;-69
2021/07/10 05:32:58;;;;;;;11.77;10.67;;;;;;;17.57;72.79;101237.38;5062004;28;20166;-70
2021/07/10 05:35:26;;;;;;;12.97;10.77;;;;;;;18.05;71.75;101234.19;5061495;28;20252;-69
2021/07/10 05:37:51;;;;;;;15.73;11.87;;;;;;;18.01;71.37;101238.63;5061458;28;20215;-69
2021/07/10 05:40:17;;;;;;;12.83;10.97;;;;;;;17.98;71.14;101235.16;5061829;28;20412;-69
2021/07/10 05:42:42;;;;;;;12.27;11.10;;;;;;;18.18;70.68;101241.06;5061309;28;20184;-69
2021/07/10 05:45:08;;;;;;;11.93;10.83;;;;;;;18.71;68.84;101229.66;5061447;28;20173;-69
2021/07/10 05:47:34;;;;;;;11.07;9.97;;;;;;;19.72;66.57;101228.75;5061713;28;20476;-69
2021/07/10 05:50:00;;;;;;;10.20;9.20;;;;;;;20.73;60.85;101215.94;5061274;28;20412;-70
2021/07/10 05:52:25;;;;;;;8.90;8.00;;;;;;;22.06;56.68;101207.00;5061210;28;20181;-67
2021/07/10 05:54:50;;;;;;;9.07;8.33;;;;;;;22.70;54.27;101217.34;5061435;28;20216;-69
2021/07/10 05:57:16;;;;;;;8.40;7.70;;;;;;;23.27;52.56;101217.19;5061162;28;20239;-68
2021/07/10 05:59:41;;;;;;;8.80;8.10;;;;;;;21.15;58.00;101218.41;5061075;28;20640;-69
2021/07/10 06:02:07;;;;;;;7.83;7.23;;;;;;;20.46;61.39;101235.09;5061347;28;20483;-69
2021/07/10 06:04:34;;;;;;;7.80;7.20;;;;;;;20.49;61.19;101229.72;5061133;28;20284;-68
2021/07/10 06:06:59;;;;;;;8.13;7.33;;;;;;;20.78;60.39;101236.13;5060212;28;20435;-69
2021/07/10 06:09:25;;;;;;;9.10;8.30;;;;;;;21.06;59.29;101231.91;5061420;28;20410;-69
2021/07/10 06:11:50;;;;;;;9.23;8.33;;;;;;;19.95;62.02;101246.81;5060914;28;20173;-69
2021/07/10 06:14:15;;;;;;;9.00;8.10;;;;;;;20.02;62.40;101252.84;5059797;28;20174;-70
2021/07/10 06:16:40;;;;;;;8.53;7.63;;;;;;;19.89;63.03;101246.06;5061106;28;20166;-69
2021/07/10 06:19:06;;;;;;;9.00;8.23;;;;;;;20.00;62.74;101249.38;5060691;28;20217;-70
2021/07/10 06:21:31;;;;;;;9.90;8.60;;;;;;;19.92;63.10;101249.53;5060833;28;20541;-70
2021/07/10 06:23:57;;;;;;;10.07;8.53;;;;;;;20.15;61.80;101242.88;5060728;28;20225;-69
2021/07/10 06:26:22;;;;;;;9.17;8.33;;;;;;;20.30;62.39;101254.91;5060717;28;20415;-70
2021/07/10 06:28:50;;;;;;;9.20;8.20;;;;;;;20.01;63.13;101253.75;5060705;28;20162;-68
2021/07/10 06:31:16;;;;;;;9.57;8.70;;;;;;;19.93;63.02;101261.88;5060660;28;20185;-69
2021/07/10 06:33:42;;;;;;;9.07;7.70;;;;;;;19.63;64.41;101258.91;5060105;28;20466;-69
2021/07/10 06:36:07;;;;;;;8.53;7.83;;;;;;;20.00;63.58;101255.53;5060827;28;20400;-67
2021/07/10 06:38:32;;;;;;;10.70;8.37;;;;;;;20.03;62.95;101257.25;5060391;28;20472;-69
2021/07/10 06:40:57;;;;;;;8.83;8.03;;;;;;;20.50;61.35;101263.25;5060414;28;20433;-68
2021/07/10 06:43:23;;;;;;;10.50;8.10;;;;;;;21.12;60.49;101259.13;5059791;28;20176;-69
2021/07/10 06:45:48;;;;;;;8.47;7.77;;;;;;;20.65;60.84;101263.78;5060410;28;20181;-69
2021/07/10 06:48:13;;;;;;;9.27;8.10;;;;;;;20.19;62.18;101265.72;5060277;28;20169;-71
2021/07/10 06:50:39;;;;;;;8.63;7.90;;;;;;;19.87;63.43;101271.72;5060888;28;20426;-71
2021/07/10 06:53:04;;;;;;;8.60;7.80;;;;;;;19.50;64.69;101270.63;5059938;28;20185;-72
2021/07/10 06:55:29;;;;;;;9.37;8.50;;;;;;;19.76;63.44;101269.25;5059105;28;20184;-70
2021/07/10 06:57:54;;;;;;;9.90;8.53;;;;;;;19.76;64.47;101280.69;5060489;28;20219;-70
2021/07/10 07:00:20;;;;;;;9.10;8.30;;;;;;;19.97;63.71;101274.13;5059955;28;20248;-70
2021/07/10 07:02:46;;;;;;;9.43;8.43;;;;;;;19.95;63.49;101269.75;5059612;28;20615;-70
2021/07/10 07:05:12;;;;;;;10.40;9.40;;;;;;;20.09;63.39;101270.31;5056188;28;20200;-69
2021/07/10 07:07:38;;;;;;;8.50;7.70;;;;;;;20.14;62.74;101271.09;5059347;28;20424;-70
2021/07/10 07:10:06;;;;;;;8.70;7.90;;;;;;;20.59;60.70;101277.19;5039690;28;20594;-69
2021/07/10 07:12:32;;;;;;;7.63;6.97;;;;;;;20.96;60.18;101271.88;5045358;28;20428;-70
2021/07/10 07:14:58;;;;;;;11.20;6.73;;;;;;;20.31;61.34;101283.09;5059985;28;20525;-71
2021/07/10 07:17:24;;;;;;;7.93;7.20;;;;;;;20.15;61.92;101288.72;5060218;28;20169;-72
2021/07/10 07:19:49;;;;;;;9.40;7.73;;;;;;;19.99;62.32;101287.31;5059969;28;20539;-71
2021/07/10 07:22:15;;;;;;;9.67;8.03;;;;;;;20.43;60.94;101290.78;5044356;28;20232;-71
2021/07/10 07:24:40;;;;;;;7.97;7.33;;;;;;;20.10;61.80;101293.25;5039462;28;20248;-71
2021/07/10 07:27:06;;;;;;;7.77;7.07;;;;;;;19.93;62.89;101298.91;5040109;28;20170;-71
2021/07/10 07:29:31;;;;;;;8.63;7.03;;;;;;;19.79;62.47;101306.22;5039545;28;20229;-69
2021/07/10 07:31:57;;;;;;;8.20;7.40;;;;;;;19.57;63.02;101296.03;5054731;28;20559;-69
2021/07/10 07:34:22;;;;;;;7.93;7.23;;;;;;;19.49;63.26;101298.81;5059279;28;20185;-69
2021/07/10 07:36:48;;;;;;;8.13;7.43;;;;;;;19.83;62.33;101300.00;5059298;28;20181;-68
2021/07/10 07:39:13;;;;;;;8.10;6.60;;;;;;;20.19;61.68;101294.84;5058986;28;20546;-68
2021/07/10 07:41:39;;;;;;;7.57;6.97;;;;;;;20.14;61.13;101294.94;5058832;28;20176;-68
2021/07/10 07:44:05;;;;;;;7.03;6.43;;;;;;;20.38;60.14;101294.41;5058408;28;20184;-68
2021/07/10 07:46:32;;;;;;;7.57;6.83;;;;;;;20.21;60.05;101294.81;5058327;28;20264;-68
2021/07/10 07:49:01;;;;;;;7.97;7.17;;;;;;;20.33;60.04;101291.88;5059287;28;20420;-68
2021/07/10 07:51:26;;;;;;;7.90;7.10;;;;;;;20.33;59.75;101298.03;5058908;28;20412;-70
2021/07/10 07:53:51;;;;;;;7.30;6.70;;;;;;;20.84;58.10;101291.59;5058588;28;20527;-69
2021/07/10 07:56:17;;;;;;;7.13;6.43;;;;;;;21.22;57.58;101293.31;5059118;28;20176;-69
2021/07/10 07:58:44;;;;;;;6.87;6.27;;;;;;;20.52;58.80;101293.19;5058567;28;20237;-69
2021/07/10 08:01:10;;;;;;;7.50;6.90;;;;;;;20.77;57.63;101282.06;5059182;28;20417;-69
2021/07/10 08:03:35;;;;;;;6.67;6.07;;;;;;;21.05;56.59;101289.31;5064033;28;20413;-69
2021/07/10 08:06:02;;;;;;;7.63;6.93;;;;;;;21.06;57.27;101292.88;5071794;28;20189;-69
2021/07/10 08:08:27;;;;;;;6.67;6.00;;;;;;;21.25;56.41;101298.56;5062760;28;20548;-69
2021/07/10 08:10:52;;;;;;;6.43;5.93;;;;;;;21.03;57.08;101304.41;5059869;28;20432;-69
2021/07/10 08:13:17;;;;;;;6.73;6.23;;;;;;;21.33;55.88;101297.44;5078285;28;20184;-69
2021/07/10 08:15:43;;;;;;;6.43;5.83;;;;;;;21.21;55.75;101303.06;5078303;28;20164;-69
2021/07/10 08:18:08;;;;;;;6.57;5.97;;;;;;;20.58;56.93;101307.22;5078496;28;20442;-69
2021/07/10 08:20:34;;;;;;;6.80;6.20;;;;;;;20.63;56.79;101300.91;5068405;28;20192;-69
2021/07/10 08:22:59;;;;;;;6.77;6.27;;;;;;;20.55;58.68;101299.34;5057860;28;20184;-69
2021/07/10 08:25:25;;;;;;;8.43;7.73;;;;;;;20.00;61.76;101307.59;5058532;28;20173;-68
2021/07/10 08:27:50;;;;;;;9.20;8.30;;;;;;;19.81;62.30;101312.41;5058240;28;20176;-69
2021/07/10 08:30:16;;;;;;;8.20;7.60;;;;;;;20.27;61.54;101306.13;5058335;28;20440;-69
2021/07/10 08:32:46;;;;;;;9.33;8.63;;;;;;;20.37;61.26;101314.75;5058699;28;20580;-68
2021/07/10 08:35:13;;;;;;;8.97;8.20;;;;;;;20.69;59.61;101311.41;5058099;28;20275;-70
2021/07/10 08:37:38;;;;;;;8.87;8.07;;;;;;;20.83;59.13;101307.56;5067886;28;20422;-69
2021/07/10 08:40:04;;;;;;;8.30;7.40;;;;;;;21.44;57.58;101306.91;5078419;28;20454;-69
2021/07/10 08:42:30;;;;;;;9.40;8.50;;;;;;;21.39;57.21;101314.97;5077776;28;20453;-69
2021/07/10 08:44:55;;;;;;;8.67;7.97;;;;;;;22.12;55.64;101313.00;5078046;28;20415;-69
2021/07/10 08:47:21;;;;;;;9.23;8.03;;;;;;;21.36;57.43;101310.63;5078431;28;20168;-69
2021/07/10 08:49:46;;;;;;;9.10;8.30;;;;;;;21.62;56.47;101305.56;5077880;28;20339;-69
2021/07/10 08:52:12;;;;;;;12.57;9.83;;;;;;;21.26;57.73;101305.63;5077501;28;20224;-68
2021/07/10 08:54:38;;;;;;;8.17;7.47;;;;;;;21.34;57.05;101303.63;5078312;28;20197;-69
2021/07/10 08:57:04;;;;;;;8.40;7.63;;;;;;;21.72;56.21;101296.44;5077608;28;20218;-69
2021/07/10 08:59:30;;;;;;;8.40;7.70;;;;;;;21.37;56.53;101288.47;5077894;28;20739;-69
2021/07/10 09:01:56;;;;;;;8.20;7.40;;;;;;;23.29;52.42;101288.06;5078206;28;20416;-69
2021/07/10 09:04:22;;;;;;;8.20;7.40;;;;;;;23.68;50.28;101279.56;5077595;28;20176;-69
2021/07/10 09:06:47;;;;;;;7.43;6.83;;;;;;;24.95;47.64;101281.78;5077779;28;20188;-69
2021/07/10 09:09:13;;;;;;;7.67;7.07;;;;;;;25.03;46.74;101277.00;5077878;28;20429;-68
2021/07/10 09:11:39;;;;;;;7.60;7.00;;;;;;;24.91;46.64;101277.50;5068657;28;20181;-71
2021/07/10 09:14:04;;;;;;;6.80;6.30;;;;;;;25.19;46.44;101271.88;5056840;28;20476;-70
2021/07/10 09:16:35;;;;;;;6.80;6.20;;;;;;;25.74;44.80;101267.72;5057985;28;20410;-71
2021/07/10 09:19:06;;;;;;;6.40;5.87;;;;;;;26.26;43.80;101267.13;5057510;28;20225;-71
2021/07/10 09:21:43;;;;;;;6.93;6.33;;;;;;;26.23;44.00;101270.81;5056739;28;20440;-70
2021/07/10 09:24:14;;;;;;;6.20;5.67;;;;;;;24.91;45.99;101266.84;5057115;28;20460;-69
2021/07/10 09:26:43;;;;;;;6.53;6.03;;;;;;;23.86;48.66;101267.34;5057690;28;20408;-69
2021/07/10 09:29:14;;;;;;;6.77;6.27;;;;;;;22.79;51.77;101272.84;5057464;28;20440;-69
2021/07/10 09:31:46;;;;;;;7.77;7.07;;;;;;;22.76;52.71;101272.97;5057351;28;20418;-69
2021/07/10 09:34:17;;;;;;;7.30;6.60;;;;;;;22.62;52.57;101276.06;5056963;28;20412;-68
2021/07/10 09:36:55;;;;;;;7.60;6.90;;;;;;;22.74;52.51;101272.13;5057097;28;20451;-69
2021/07/10 09:39:26;;;;;;;7.67;6.87;;;;;;;23.18;51.82;101269.81;5057570;28;20504;-70
2021/07/10 09:41:52;;;;;;;9.30;6.77;;;;;;;22.11;53.99;101277.63;5057654;28;20435;-70
2021/07/10 09:44:17;;;;;;;7.60;6.90;;;;;;;22.81;52.30;101275.47;5056274;28;20416;-70
2021/07/10 09:46:43;;;;;;;7.40;6.80;;;;;;;22.76;52.03;101272.06;5057129;28;20408;-69
2021/07/10 09:49:30;;;;;;;6.90;6.20;;;;;;;22.49;52.83;101274.72;5057574;28;20532;-69
2021/07/10 09:51:59;;;;;;;8.33;7.23;;;;;;;23.17;51.17;101280.50;5057075;28;20181;-70
2021/07/10 09:54:32;;;;;;;7.90;7.30;;;;;;;22.95;51.86;101282.97;5055005;28;20717;-70
2021/07/10 09:57:00;;;;;;;15.20;7.00;;;;;;;24.41;48.82;101278.63;5055581;28;20420;-70
2021/07/10 09:59:25;;;;;;;10.20;7.07;;;;;;;23.74;50.23;101283.78;5056767;28;20708;-68
2021/07/10 10:01:51;;;;;;;7.77;7.07;;;;;;;24.85;48.48;101283.97;5056617;28;20469;-69
2021/07/10 10:04:28;;;;;;;7.03;6.40;;;;;;;24.93;46.64;101279.19;5055710;28;20234;-68
2021/07/10 10:06:55;;;;;;;7.67;7.07;;;;;;;24.00;49.01;101285.53;5052057;28;20181;-68
2021/07/10 10:09:29;;;;;;;7.73;7.13;;;;;;;24.62;46.89;101284.94;5059316;28;20821;-69
2021/07/10 10:12:00;;;;;;;7.20;6.60;;;;;;;24.99;46.10;101280.72;5059133;28;20688;-69
2021/07/10 10:14:30;;;;;;;6.67;6.07;;;;;;;24.72;46.12;101278.28;5059713;28;20438;-69
2021/07/10 10:16:59;;;;;;;6.83;6.23;;;;;;;26.63;42.83;101278.69;5060065;28;20740;-70
2021/07/10 10:19:27;;;;;;;7.60;5.80;;;;;;;27.95;39.74;101278.16;5060289;28;20452;-69
2021/07/10 10:21:55;;;;;;;6.90;5.30;;;;;;;26.58;40.99;101276.25;5059614;28;20415;-70
2021/07/10 10:24:22;;;;;;;5.60;5.10;;;;;;;27.10;39.02;101270.09;5060235;28;20617;-69
2021/07/10 10:26:47;;;;;;;5.57;5.07;;;;;;;27.30;37.92;101278.91;5060138;28;20732;-70
2021/07/10 10:29:13;;;;;;;5.30;4.90;;;;;;;27.96;37.59;101269.19;5060523;28;20479;-70
2021/07/10 10:31:41;;;;;;;6.20;4.50;;;;;;;28.07;36.39;101266.78;5060344;28;20168;-70
2021/07/10 10:34:07;;;;;;;5.03;4.60;;;;;;;28.26;36.55;101274.66;5060261;28;20410;-69
2021/07/10 10:36:34;;;;;;;5.27;4.80;;;;;;;27.29;37.69;101270.03;5060330;28;20495;-70
2021/07/10 10:38:59;;;;;;;5.30;4.80;;;;;;;27.04;38.91;101273.09;5057574;28;20209;-69
2021/07/10 10:41:26;;;;;;;4.90;4.50;;;;;;;27.47;39.86;101278.94;5058545;28;20842;-71
2021/07/10 10:43:54;;;;;;;5.80;4.93;;;;;;;26.05;41.62;101277.88;5058676;28;20245;-70
2021/07/10 10:46:23;;;;;;;5.63;5.13;;;;;;;24.20;45.00;101290.06;5059541;28;20423;-70
2021/07/10 10:48:49;;;;;;;6.17;5.67;;;;;;;24.92;44.39;101281.94;5059449;28;20434;-70
2021/07/10 10:51:23;;;;;;;5.40;5.00;;;;;;;25.49;42.87;101284.84;5059310;28;20519;-69
2021/07/10 10:53:49;;;;;;;6.63;5.57;;;;;;;26.08;41.75;101279.56;5059706;28;20427;-69
2021/07/10 10:56:36;;;;;;;6.30;5.70;;;;;;;25.91;41.22;101283.81;5059708;28;20430;-67
2021/07/10 10:59:27;;;;;;;5.80;5.40;;;;;;;26.23;42.01;101281.50;5060136;28;20483;-69
2021/07/10 11:01:56;;;;;;;5.50;4.77;;;;;;;26.63;40.66;101278.69;5059932;28;20437;-68
2021/07/10 11:04:56;;;;;;;4.73;4.43;;;;;;;27.51;37.60;101285.84;5059651;28;20503;-69
2021/07/10 11:07:23;;;;;;;5.43;4.93;;;;;;;25.45;40.67;101284.13;5048524;28;20408;-69
2021/07/10 11:10:09;;;;;;;5.60;5.10;;;;;;;26.53;39.72;101284.50;5059880;28;20449;-69
2021/07/10 11:12:47;;;;;;;5.40;5.00;;;;;;;25.91;40.43;101281.16;5059855;28;20670;-71